createdAt,value
2023-04-21T00:01:45.679Z,6.80
2023-04-21T00:04:15.288Z,6.80
2023-04-21T00:06:44.882Z,6.80
2023-04-21T00:09:14.324Z,6.80
2023-04-21T00:11:42.388Z,6.90
2023-04-21T00:14:10.405Z,6.90
2023-04-21T00:16:38.488Z,6.90
2023-04-21T00:19:07.697Z,6.90
2023-04-21T00:21:36.145Z,6.90
2023-04-21T00:24:04.283Z,6.90
2023-04-21T00:26:33.735Z,6.90
2023-04-21T00:29:01.729Z,6.90
2023-04-21T00:31:30.540Z,6.90
2023-04-21T00:33:58.567Z,6.90
2023-04-21T00:36:28.213Z,6.80
2023-04-21T00:38:56.311Z,6.90
2023-04-21T00:41:24.792Z,6.90
2023-04-21T00:44:07.537Z,6.90
2023-04-21T00:46:36.655Z,6.90
2023-04-21T00:49:07.140Z,6.90
2023-04-21T00:51:36.911Z,6.90
2023-04-21T00:54:06.854Z,6.90
2023-04-21T00:56:36.941Z,6.80
2023-04-21T00:59:06.464Z,6.80
2023-04-21T01:01:36.352Z,6.80
2023-04-21T01:04:06.147Z,6.80
2023-04-21T01:06:35.088Z,6.80
2023-04-21T01:09:05.569Z,6.80
2023-04-21T01:11:33.545Z,6.80
2023-04-21T01:14:01.682Z,6.80
2023-04-21T01:16:32.645Z,6.80
2023-04-21T01:19:01.078Z,6.80
2023-04-21T01:21:33.479Z,6.80
2023-04-21T01:24:02.979Z,6.70
2023-04-21T01:26:31.014Z,6.70
2023-04-21T01:28:59.071Z,6.80
2023-04-21T01:31:27.356Z,6.80
2023-04-21T01:33:56.129Z,6.70
2023-04-21T01:36:24.265Z,6.70
2023-04-21T01:38:52.203Z,6.70
2023-04-21T01:41:21.704Z,6.70
2023-04-21T01:43:49.837Z,6.70
2023-04-21T01:46:21.234Z,6.70
2023-04-21T01:48:49.284Z,6.70
2023-04-21T01:51:17.367Z,6.70
2023-04-21T01:53:45.421Z,6.70
2023-04-21T01:56:15.325Z,6.70
2023-04-21T01:58:45.048Z,6.70
2023-04-21T02:01:13.047Z,6.80
2023-04-21T02:03:41.832Z,6.70
2023-04-21T02:06:09.985Z,6.70
2023-04-21T02:08:37.959Z,6.70
2023-04-21T02:11:06.244Z,6.70
2023-04-21T02:13:34.237Z,6.60
2023-04-21T02:16:13.304Z,6.60
2023-04-21T02:18:42.367Z,6.60
2023-04-21T02:21:10.905Z,6.50
2023-04-21T02:23:38.903Z,6.50
2023-04-21T02:26:07.069Z,6.40
2023-04-21T02:28:35.094Z,6.40
2023-04-21T02:31:04.701Z,6.40
2023-04-21T02:33:32.892Z,6.30
2023-04-21T02:36:00.888Z,6.30
2023-04-21T02:38:28.844Z,6.20
2023-04-21T02:40:57.596Z,6.20
2023-04-21T02:43:25.815Z,6.10
2023-04-21T02:45:54.051Z,6.10
2023-04-21T02:48:23.981Z,6.10
2023-04-21T02:50:53.209Z,6.10
2023-04-21T02:53:21.441Z,6.10
2023-04-21T02:55:50.316Z,6.00
2023-04-21T02:58:20.221Z,6.10
2023-04-21T03:00:48.234Z,6.00
2023-04-21T03:03:17.130Z,6.00
2023-04-21T03:05:46.630Z,6.00
2023-04-21T03:08:14.663Z,6.00
2023-04-21T03:10:43.440Z,6.00
2023-04-21T03:13:11.377Z,6.00
2023-04-21T03:15:39.357Z,6.00
2023-04-21T03:18:07.470Z,6.00
2023-04-21T03:20:35.506Z,5.90
2023-04-21T03:23:05.304Z,5.90
2023-04-21T03:25:33.329Z,5.90
2023-04-21T03:28:01.328Z,5.90
2023-04-21T03:30:29.314Z,5.90
2023-04-21T03:32:58.720Z,5.90
2023-04-21T03:35:27.345Z,5.80
2023-04-21T03:37:55.489Z,5.90
2023-04-21T03:40:24.972Z,5.80
2023-04-21T03:42:53.279Z,5.80
2023-04-21T03:45:22.677Z,5.70
2023-04-21T03:47:54.171Z,5.70
2023-04-21T03:50:22.290Z,5.70
2023-04-21T03:52:50.305Z,5.60
2023-04-21T03:55:18.543Z,5.60
2023-04-21T03:57:47.985Z,5.50
2023-04-21T04:00:16.624Z,5.50
2023-04-21T04:02:44.792Z,5.40
2023-04-21T04:05:12.947Z,5.40
2023-04-21T04:07:40.953Z,5.40
2023-04-21T04:10:09.221Z,5.40
2023-04-21T04:12:38.011Z,5.40
2023-04-21T04:15:08.689Z,5.40
2023-04-21T04:17:36.699Z,5.40
2023-04-21T04:20:06.443Z,5.40
2023-04-21T04:22:34.725Z,5.40
2023-04-21T04:25:03.404Z,5.40
2023-04-21T04:27:31.966Z,5.40
2023-04-21T04:30:00.127Z,5.50
2023-04-21T04:32:29.596Z,5.50
2023-04-21T04:34:58.852Z,5.50
2023-04-21T04:37:28.317Z,5.50
2023-04-21T04:39:56.561Z,5.50
2023-04-21T04:42:25.163Z,5.50
2023-04-21T04:44:54.787Z,5.60
2023-04-21T04:47:22.854Z,5.60
2023-04-21T04:49:52.479Z,5.60
2023-04-21T04:52:20.421Z,5.60
2023-04-21T04:54:48.453Z,5.70
2023-04-21T04:57:16.532Z,5.70
2023-04-21T04:59:44.784Z,5.70
2023-04-21T05:02:13.712Z,5.80
2023-04-21T05:04:42.430Z,5.80
2023-04-21T05:07:12.063Z,5.90
2023-04-21T05:09:40.133Z,5.90
2023-04-21T05:12:08.940Z,6.00
2023-04-21T05:14:37.485Z,5.90
2023-04-21T05:17:05.655Z,6.00
2023-04-21T05:19:36.944Z,6.10
2023-04-21T05:22:06.602Z,6.10
2023-04-21T05:24:36.622Z,6.10
2023-04-21T05:27:05.453Z,6.20
2023-04-21T05:29:34.236Z,6.40
2023-04-21T05:32:02.368Z,6.50
2023-04-21T05:34:30.354Z,6.60
2023-04-21T05:36:58.483Z,6.70
2023-04-21T05:39:29.118Z,6.70
2023-04-21T05:41:58.507Z,6.80
2023-04-21T05:44:26.538Z,7.00
2023-04-21T05:46:54.477Z,7.00
2023-04-21T05:49:22.469Z,7.00
2023-04-21T05:51:50.883Z,7.10
2023-04-21T05:54:19.696Z,7.30
2023-04-21T05:56:48.568Z,7.30
2023-04-21T05:59:18.087Z,7.50
2023-04-21T06:01:46.181Z,7.70
2023-04-21T06:04:14.728Z,7.70
2023-04-21T06:06:44.283Z,7.90
2023-04-21T06:09:15.584Z,8.20
2023-04-21T06:11:43.632Z,8.50
2023-04-21T06:14:11.754Z,8.90
2023-04-21T06:16:41.707Z,9.30
2023-04-21T06:19:09.878Z,10.20
2023-04-21T06:21:37.930Z,10.80
2023-04-21T06:24:06.598Z,11.40
2023-04-21T06:26:34.586Z,12.10
2023-04-21T06:29:03.236Z,12.50
2023-04-21T06:31:31.288Z,12.50
2023-04-21T06:34:00.665Z,12.70
2023-04-21T06:36:28.793Z,13.20
2023-04-21T06:38:56.866Z,13.80
2023-04-21T06:41:25.260Z,13.60
2023-04-21T06:43:53.255Z,13.90
2023-04-21T06:46:21.410Z,14.10
2023-04-21T06:48:49.562Z,14.70
2023-04-21T06:51:18.998Z,15.20
2023-04-21T06:53:47.379Z,15.70
2023-04-21T06:56:15.564Z,16.00
2023-04-21T06:58:46.745Z,16.70
2023-04-21T07:01:14.829Z,16.60
2023-04-21T07:03:43.028Z,16.70
2023-04-21T07:06:11.499Z,17.40
2023-04-21T07:08:41.434Z,17.10
2023-04-21T07:11:09.568Z,16.90
2023-04-21T07:13:37.575Z,16.70
2023-04-21T07:16:06.092Z,16.90
2023-04-21T07:18:38.523Z,16.50
2023-04-21T07:21:06.773Z,16.20
2023-04-21T07:23:34.789Z,17.10
2023-04-21T07:26:04.205Z,18.20
2023-04-21T07:28:32.242Z,18.50
2023-04-21T07:31:02.312Z,18.60
2023-04-21T07:33:31.619Z,18.70
2023-04-21T07:35:59.768Z,19.10
2023-04-21T07:38:28.519Z,19.40
2023-04-21T07:40:56.603Z,18.50
2023-04-21T07:43:27.056Z,18.20
2023-04-21T07:45:55.162Z,17.60
2023-04-21T07:48:23.197Z,17.00
2023-04-21T07:50:51.344Z,16.80
2023-04-21T07:53:19.340Z,16.60
2023-04-21T07:55:47.845Z,16.40
2023-04-21T07:58:16.508Z,16.40
2023-04-21T08:00:46.041Z,16.60
2023-04-21T08:03:14.367Z,16.80
2023-04-21T08:05:42.480Z,16.30
2023-04-21T08:08:10.945Z,16.00
2023-04-21T08:10:45.171Z,16.50
2023-04-21T08:16:00.339Z,15.90
2023-04-21T08:18:28.653Z,15.90
2023-04-21T08:20:58.014Z,16.60
2023-04-21T08:23:26.248Z,17.60
2023-04-21T08:25:54.642Z,18.30
2023-04-21T08:28:22.756Z,19.30
2023-04-21T08:30:51.269Z,20.10
2023-04-21T08:33:20.834Z,19.50
2023-04-21T08:36:02.486Z,20.30
2023-04-21T08:38:35.365Z,21.50
2023-04-21T08:41:05.498Z,20.10
2023-04-21T08:43:34.605Z,20.00
2023-04-21T08:46:07.247Z,20.30
2023-04-21T08:48:38.588Z,20.90
2023-04-21T08:51:09.970Z,21.80
2023-04-21T08:53:38.492Z,21.70
2023-04-21T08:56:11.287Z,21.20
2023-04-21T08:58:41.572Z,21.00
2023-04-21T09:01:09.818Z,21.40
2023-04-21T09:03:39.972Z,22.40
2023-04-21T09:06:10.101Z,21.30
2023-04-21T09:08:43.508Z,19.80
2023-04-21T09:11:15.605Z,19.70
2023-04-21T09:13:44.439Z,20.00
2023-04-21T09:16:20.149Z,20.50
2023-04-21T09:18:50.681Z,20.20
2023-04-21T09:21:22.017Z,21.80
2023-04-21T09:23:51.297Z,23.00
2023-04-21T09:26:21.364Z,24.60
2023-04-21T09:28:50.871Z,24.70
2023-04-21T09:31:20.912Z,24.20
2023-04-21T09:36:24.717Z,22.20
2023-04-21T09:39:20.728Z,23.10
2023-04-21T09:41:46.668Z,23.40
2023-04-21T09:44:14.925Z,23.00
2023-04-21T09:46:45.275Z,23.70
2023-04-21T09:49:17.568Z,21.80
2023-04-21T09:56:54.093Z,21.60
2023-04-21T09:59:27.748Z,21.70
2023-04-21T10:01:58.904Z,22.60
2023-04-21T10:04:30.288Z,22.50
2023-04-21T10:06:59.582Z,22.70
2023-04-21T10:09:32.409Z,23.40
2023-04-21T10:12:02.781Z,23.60
2023-04-21T10:14:31.029Z,23.80
2023-04-21T10:17:04.517Z,23.60
2023-04-21T10:19:39.328Z,22.90
2023-04-21T10:22:09.273Z,23.20
2023-04-21T10:24:40.371Z,21.90
2023-04-21T10:27:12.540Z,21.80
2023-04-21T10:29:55.390Z,20.50
2023-04-21T10:32:42.675Z,20.90
2023-04-21T10:35:14.622Z,21.00
2023-04-21T10:37:43.270Z,20.40
2023-04-21T10:43:08.232Z,19.00
2023-04-21T10:45:39.580Z,18.10
2023-04-21T10:48:14.964Z,17.80
2023-04-21T10:50:45.353Z,17.40
2023-04-21T10:53:14.443Z,16.90
2023-04-21T10:55:43.887Z,16.70
2023-04-21T10:58:12.189Z,16.10
2023-04-21T11:00:41.455Z,16.40
2023-04-21T11:03:10.148Z,18.00
2023-04-21T11:05:40.406Z,19.80
2023-04-21T11:08:14.520Z,19.80
2023-04-21T11:10:54.893Z,19.60
2023-04-21T11:13:24.881Z,19.50
2023-04-21T11:16:03.632Z,19.50
2023-04-21T11:18:38.964Z,18.60
2023-04-21T11:21:18.102Z,18.60
2023-04-21T11:23:52.978Z,18.50
2023-04-21T11:26:31.845Z,18.40
2023-04-21T11:29:03.225Z,18.40
2023-04-21T11:31:31.975Z,18.80
2023-04-21T11:34:00.637Z,19.40
2023-04-21T11:36:29.300Z,19.60
2023-04-21T11:38:59.458Z,19.70
2023-04-21T11:41:28.014Z,18.60
2023-04-21T11:43:56.669Z,19.00
2023-04-21T11:46:26.241Z,19.30
2023-04-21T11:49:02.030Z,20.30
2023-04-21T11:51:35.501Z,20.40
2023-04-21T11:54:06.925Z,20.00
2023-04-21T11:56:38.073Z,19.80
2023-04-21T11:59:08.770Z,19.20
2023-04-21T12:01:43.791Z,19.40
2023-04-21T12:04:16.136Z,18.60
2023-04-21T12:06:45.082Z,19.20
2023-04-21T12:09:21.138Z,19.20
2023-04-21T12:11:51.218Z,19.30
2023-04-21T12:14:20.971Z,18.30
2023-04-21T12:16:51.517Z,18.50
2023-04-21T12:19:26.663Z,18.80
2023-04-21T12:21:56.089Z,19.10
2023-04-21T12:24:26.021Z,19.30
2023-04-21T12:26:54.704Z,19.00
2023-04-21T12:29:22.670Z,19.40
2023-04-21T12:31:51.103Z,19.10
2023-04-21T12:34:19.603Z,19.50
2023-04-21T12:36:47.850Z,19.70
2023-04-21T12:39:17.435Z,19.30
2023-04-21T12:41:47.472Z,19.40
2023-04-21T12:44:16.814Z,19.40
2023-04-21T12:46:45.317Z,19.70
2023-04-21T12:49:14.498Z,20.00
2023-04-21T12:51:43.220Z,19.90
2023-04-21T12:54:11.751Z,19.90
2023-04-21T12:56:42.189Z,19.90
2023-04-21T12:59:12.738Z,20.40
2023-04-21T13:01:42.462Z,20.20
2023-04-21T13:04:10.787Z,20.00
2023-04-21T13:06:40.641Z,20.00
2023-04-21T13:09:08.713Z,20.10
2023-04-21T13:11:36.881Z,19.90
2023-04-21T13:14:05.097Z,19.70
2023-04-21T13:16:34.531Z,20.10
2023-04-21T13:19:02.584Z,19.40
2023-04-21T13:21:32.711Z,19.70
2023-04-21T13:24:03.282Z,20.00
2023-04-21T13:26:33.583Z,20.10
2023-04-21T13:29:01.716Z,20.10
2023-04-21T13:31:29.996Z,20.40
2023-04-21T13:33:59.781Z,20.40
2023-04-21T13:36:31.319Z,20.00
2023-04-21T13:39:00.826Z,19.90
2023-04-21T13:41:28.968Z,20.50
2023-04-21T13:43:57.072Z,19.90
2023-04-21T13:46:25.378Z,20.00
2023-04-21T13:48:53.989Z,20.00
2023-04-21T13:51:23.542Z,20.00
2023-04-21T13:53:51.594Z,19.90
2023-04-21T13:56:19.981Z,20.10
2023-04-21T13:58:48.439Z,19.60
2023-04-21T14:01:18.602Z,19.70
2023-04-21T14:03:49.110Z,19.60
2023-04-21T14:06:17.490Z,19.50
2023-04-21T14:08:46.830Z,19.80
2023-04-21T14:11:14.897Z,19.80
2023-04-21T14:13:52.990Z,19.80
2023-04-21T14:16:32.126Z,19.90
2023-04-21T14:19:00.552Z,19.70
2023-04-21T14:21:28.718Z,19.80
2023-04-21T14:23:58.900Z,20.00
2023-04-21T14:26:27.299Z,20.10
2023-04-21T14:28:55.385Z,19.50
2023-04-21T14:31:23.666Z,19.70
2023-04-21T14:33:51.843Z,19.80
2023-04-21T14:36:20.325Z,20.10
2023-04-21T14:38:48.548Z,20.00
2023-04-21T14:41:18.232Z,20.00
2023-04-21T14:43:47.714Z,20.10
2023-04-21T14:46:17.826Z,19.90
2023-04-21T14:48:46.571Z,19.90
2023-04-21T14:51:14.641Z,19.90
2023-04-21T14:53:42.817Z,20.00
2023-04-21T14:56:10.898Z,20.20
2023-04-21T14:58:40.282Z,20.00
2023-04-21T15:01:10.887Z,20.00
2023-04-21T15:03:39.363Z,20.00
2023-04-21T15:06:08.016Z,20.10
2023-04-21T15:08:37.431Z,20.10
2023-04-21T15:11:06.182Z,20.20
2023-04-21T15:13:35.692Z,20.00
2023-04-21T15:16:05.169Z,20.00
2023-04-21T15:18:33.196Z,19.90
2023-04-21T15:21:01.691Z,19.50
2023-04-21T15:23:29.819Z,19.80
2023-04-21T15:26:00.771Z,19.80
2023-04-21T15:28:28.877Z,19.90
2023-04-21T15:30:56.943Z,19.70
2023-04-21T15:33:26.775Z,19.60
2023-04-21T15:35:54.772Z,19.70
2023-04-21T15:38:22.977Z,19.60
2023-04-21T15:41:00.800Z,19.50
2023-04-21T15:43:30.366Z,19.40
2023-04-21T15:45:58.398Z,19.40
2023-04-21T15:48:28.235Z,19.40
2023-04-21T15:50:57.322Z,19.40
2023-04-21T15:53:25.759Z,19.40
2023-04-21T15:55:53.749Z,19.20
2023-04-21T15:58:22.270Z,19.20
2023-04-21T16:00:50.791Z,19.20
2023-04-21T16:03:18.928Z,19.20
2023-04-21T16:05:48.876Z,19.30
2023-04-21T16:08:17.093Z,19.30
2023-04-21T16:10:45.225Z,19.10
2023-04-21T16:13:13.853Z,19.00
2023-04-21T16:15:42.070Z,19.20
2023-04-21T16:18:10.211Z,19.20
2023-04-21T16:20:38.812Z,19.20
2023-04-21T16:23:08.175Z,19.20
2023-04-21T16:25:36.606Z,19.10
2023-04-21T16:28:06.327Z,19.10
2023-04-21T16:30:35.064Z,18.90
2023-04-21T16:33:03.261Z,18.90
2023-04-21T16:35:31.682Z,18.90
2023-04-21T16:38:00.114Z,18.80
2023-04-21T16:40:29.697Z,18.70
2023-04-21T16:42:57.702Z,18.50
2023-04-21T16:45:26.603Z,18.50
2023-04-21T16:47:54.970Z,18.50
2023-04-21T16:50:23.932Z,18.40
2023-04-21T16:52:52.051Z,18.30
2023-04-21T16:55:20.476Z,18.30
2023-04-21T16:57:50.056Z,18.20
2023-04-21T17:00:18.683Z,18.20
2023-04-21T17:02:47.275Z,18.10
2023-04-21T17:05:16.395Z,18.00
2023-04-21T17:07:45.098Z,18.00
2023-04-21T17:10:13.174Z,17.90
2023-04-21T17:12:41.263Z,17.90
2023-04-21T17:15:11.892Z,17.80
2023-04-21T17:17:43.345Z,17.70
2023-04-21T17:20:13.750Z,17.70
2023-04-21T17:22:42.899Z,17.50
2023-04-21T17:25:11.765Z,17.50
2023-04-21T17:27:40.833Z,17.30
2023-04-21T17:30:11.445Z,17.30
2023-04-21T17:32:40.613Z,17.20
2023-04-21T17:35:09.360Z,17.10
2023-04-21T17:37:40.576Z,17.00
2023-04-21T17:40:10.337Z,16.90
2023-04-21T17:42:38.628Z,16.80
2023-04-21T17:45:08.577Z,16.70
2023-04-21T17:47:39.021Z,16.60
2023-04-21T17:50:10.116Z,16.50
2023-04-21T17:52:38.137Z,16.40
2023-04-21T17:55:07.106Z,16.30
2023-04-21T17:57:35.698Z,16.20
2023-04-21T18:00:07.818Z,16.20
2023-04-21T18:02:37.836Z,16.10
2023-04-21T18:05:06.843Z,16.00
2023-04-21T18:07:34.963Z,15.90
2023-04-21T18:10:03.096Z,15.80
2023-04-21T18:12:31.248Z,15.60
2023-04-21T18:14:59.564Z,15.50
2023-04-21T18:17:27.736Z,15.40
2023-04-21T18:19:57.200Z,15.40
2023-04-21T18:22:25.991Z,15.30
2023-04-21T18:24:54.129Z,15.20
2023-04-21T18:27:22.899Z,15.10
2023-04-21T18:29:51.322Z,15.00
2023-04-21T18:32:19.395Z,14.90
2023-04-21T18:34:47.378Z,14.70
2023-04-21T18:37:16.770Z,14.70
2023-04-21T18:39:45.479Z,14.60
2023-04-21T18:42:13.528Z,14.50
2023-04-21T18:44:41.603Z,14.40
2023-04-21T18:47:09.598Z,14.40
2023-04-21T18:49:39.080Z,14.30
2023-04-21T18:52:07.564Z,14.20
2023-04-21T18:54:37.354Z,14.10
2023-04-21T18:57:06.103Z,14.00
2023-04-21T18:59:34.120Z,13.90
2023-04-21T19:02:04.089Z,13.80
2023-04-21T19:04:33.040Z,13.70
2023-04-21T19:07:01.991Z,13.70
2023-04-21T19:09:30.244Z,13.50
2023-04-21T19:12:00.106Z,13.50
2023-04-21T19:14:34.631Z,13.30
2023-04-21T19:17:07.961Z,13.30
2023-04-21T19:19:36.192Z,13.10
2023-04-21T19:22:04.727Z,13.00
2023-04-21T19:24:33.268Z,13.00
2023-04-21T19:27:03.494Z,12.90
2023-04-21T19:29:32.555Z,12.90
2023-04-21T19:32:02.101Z,12.90
2023-04-21T19:34:30.218Z,12.90
2023-04-21T19:36:58.535Z,12.90
2023-04-21T19:39:26.602Z,12.90
2023-04-21T19:41:54.823Z,12.80
2023-04-21T19:44:24.269Z,12.80
2023-04-21T19:46:52.864Z,12.70
2023-04-21T19:49:20.898Z,12.70
2023-04-21T19:51:49.316Z,12.60
2023-04-21T19:54:18.041Z,12.60
2023-04-21T19:56:46.383Z,12.50
2023-04-21T19:59:14.373Z,12.40
2023-04-21T20:01:43.845Z,12.30
2023-04-21T20:04:12.530Z,12.20
2023-04-21T20:06:41.912Z,12.10
2023-04-21T20:09:10.458Z,12.00
2023-04-21T20:11:38.542Z,11.90
2023-04-21T20:14:06.589Z,11.80
2023-04-21T20:16:34.730Z,11.80
2023-04-21T20:19:05.180Z,11.70
2023-04-21T20:21:33.420Z,11.60
2023-04-21T20:24:02.421Z,11.60
2023-04-21T20:26:30.520Z,11.50
2023-04-21T20:28:58.918Z,11.50
2023-04-21T20:31:27.466Z,11.40
2023-04-21T20:33:55.487Z,11.40
2023-04-21T20:36:25.232Z,11.50
2023-04-21T20:38:53.310Z,11.50
2023-04-21T20:41:23.248Z,11.50
2023-04-21T20:43:51.674Z,11.60
2023-04-21T20:46:19.812Z,11.60
2023-04-21T20:48:47.818Z,11.90
2023-04-21T20:51:15.815Z,12.20
2023-04-21T20:53:45.237Z,12.40
2023-04-21T20:56:13.677Z,12.30
2023-04-21T20:58:41.734Z,12.30
2023-04-21T21:01:09.820Z,12.30
2023-04-21T21:03:38.267Z,12.20
2023-04-21T21:06:06.518Z,12.10
2023-04-21T21:08:36.195Z,12.10
2023-04-21T21:11:06.351Z,12.10
2023-04-21T21:13:34.409Z,12.00
2023-04-21T21:16:02.447Z,11.90
2023-04-21T21:18:34.495Z,11.80
2023-04-21T21:21:03.513Z,11.70
2023-04-21T21:23:32.776Z,11.60
2023-04-21T21:26:01.436Z,11.60
2023-04-21T21:28:31.103Z,11.50
2023-04-21T21:30:59.073Z,11.50
2023-04-21T21:33:27.487Z,11.50
2023-04-21T21:35:55.533Z,11.60
2023-04-21T21:38:23.542Z,11.60
2023-04-21T21:40:51.507Z,11.70
2023-04-21T21:43:19.521Z,11.70
2023-04-21T21:45:49.395Z,11.70
2023-04-21T21:48:17.618Z,11.70
2023-04-21T21:50:45.650Z,11.60
2023-04-21T21:53:13.755Z,11.50
2023-04-21T21:55:41.808Z,11.40
2023-04-21T21:58:10.523Z,11.30
2023-04-21T22:00:39.463Z,11.30
2023-04-21T22:03:09.265Z,11.30
2023-04-21T22:05:37.454Z,11.20
2023-04-21T22:08:05.728Z,11.20
2023-04-21T22:10:34.709Z,11.10
2023-04-21T22:13:02.820Z,11.20
2023-04-21T22:15:30.823Z,11.30
2023-04-21T22:17:58.850Z,11.30
2023-04-21T22:20:28.239Z,11.30
2023-04-21T22:22:57.210Z,11.30
2023-04-21T22:25:27.083Z,11.30
2023-04-21T22:27:55.477Z,11.20
2023-04-21T22:30:23.544Z,11.20
2023-04-21T22:32:51.703Z,11.10
2023-04-21T22:35:20.114Z,11.00
2023-04-21T22:37:49.482Z,10.90
2023-04-21T22:40:17.476Z,10.80
2023-04-21T22:42:45.499Z,10.70
2023-04-21T22:45:13.610Z,10.70
2023-04-21T22:47:41.881Z,10.60
2023-04-21T22:50:11.645Z,10.60
2023-04-21T22:52:39.672Z,10.50
2023-04-21T22:55:10.163Z,10.40
2023-04-21T22:57:39.008Z,10.40
2023-04-21T23:00:10.188Z,10.30
2023-04-21T23:02:38.342Z,10.30
2023-04-21T23:05:07.508Z,10.30
2023-04-21T23:07:36.556Z,10.20
2023-04-21T23:10:05.166Z,10.20
2023-04-21T23:12:34.897Z,10.20
2023-04-21T23:15:02.905Z,10.10
2023-04-21T23:17:30.991Z,10.10
2023-04-21T23:19:59.012Z,10.10
2023-04-21T23:22:27.111Z,10.10
2023-04-21T23:24:55.993Z,10.20
2023-04-21T23:27:23.995Z,10.30
2023-04-21T23:29:53.403Z,10.30
2023-04-21T23:32:21.407Z,10.30
2023-04-21T23:34:49.471Z,10.40
2023-04-21T23:37:17.638Z,10.40
2023-04-21T23:39:45.848Z,10.30
2023-04-21T23:42:13.852Z,10.30
2023-04-21T23:44:41.810Z,10.20
2023-04-21T23:47:11.540Z,10.10
2023-04-21T23:49:40.465Z,10.00
2023-04-21T23:52:09.200Z,10.00
2023-04-21T23:54:37.173Z,9.90
2023-04-21T23:57:05.281Z,9.90
2023-04-21T23:59:33.352Z,9.80
